createdAt,value
2022-12-19T00:00:34.711Z,-2.93
2022-12-19T00:05:41.078Z,-2.94
2022-12-19T00:10:43.559Z,-2.96
2022-12-19T00:15:45.380Z,-2.98
2022-12-19T00:21:08.655Z,-3.01
2022-12-19T00:26:14.754Z,-3.05
2022-12-19T00:31:18.830Z,-3.05
2022-12-19T00:36:23.660Z,-3.14
2022-12-19T00:41:31.054Z,-3.20
2022-12-19T00:46:34.620Z,-3.23
2022-12-19T00:51:37.719Z,-3.30
2022-12-19T00:56:43.400Z,-3.37
2022-12-19T01:01:45.591Z,-3.45
2022-12-19T01:06:49.942Z,-3.48
2022-12-19T01:12:11.086Z,-3.53
2022-12-19T01:17:13.268Z,-3.60
2022-12-19T01:22:15.237Z,-3.62
2022-12-19T01:27:16.998Z,-3.62
2022-12-19T01:32:18.742Z,-3.64
2022-12-19T01:37:20.721Z,-3.64
2022-12-19T01:42:24.179Z,-3.66
2022-12-19T01:47:26.508Z,-3.67
2022-12-19T01:52:28.436Z,-3.67
2022-12-19T01:57:30.326Z,-3.66
2022-12-19T02:02:37.327Z,-3.67
2022-12-19T02:07:41.036Z,-3.64
2022-12-19T02:12:45.444Z,-3.64
2022-12-19T02:17:54.476Z,-3.61
2022-12-19T02:23:28.750Z,-3.60
2022-12-19T02:29:01.679Z,-3.56
2022-12-19T02:34:11.654Z,-3.59
2022-12-19T02:39:32.150Z,-3.58
2022-12-19T02:44:43.160Z,-3.54
2022-12-19T02:49:45.329Z,-3.52
2022-12-19T02:54:53.605Z,-3.45
2022-12-19T03:00:08.138Z,-3.41
2022-12-19T03:05:35.825Z,-3.38
2022-12-19T03:10:45.646Z,-3.35
2022-12-19T03:15:50.051Z,-3.30
2022-12-19T03:21:08.826Z,-3.29
2022-12-19T03:26:16.689Z,-3.28
2022-12-19T03:31:22.251Z,-3.28
2022-12-19T03:36:40.259Z,-3.23
2022-12-19T03:42:03.101Z,-3.19
2022-12-19T03:47:31.284Z,-3.17
2022-12-19T03:52:38.784Z,-3.14
2022-12-19T03:57:43.150Z,-3.09
2022-12-19T04:02:53.742Z,-3.06
2022-12-19T04:08:00.908Z,-3.05
2022-12-19T04:13:14.284Z,-3.01
2022-12-19T04:18:18.587Z,-3.00
2022-12-19T04:23:32.233Z,-2.99
2022-12-19T04:28:40.736Z,-2.95
2022-12-19T04:33:42.895Z,-2.89
2022-12-19T04:38:44.685Z,-2.84
2022-12-19T04:43:46.405Z,-2.80
2022-12-19T04:48:48.131Z,-2.77
2022-12-19T04:53:52.817Z,-2.74
2022-12-19T04:58:59.212Z,-2.72
2022-12-19T05:04:04.414Z,-2.70
2022-12-19T05:09:06.631Z,-2.64
2022-12-19T05:14:09.083Z,-2.59
2022-12-19T05:19:11.149Z,-2.62
2022-12-19T05:24:13.053Z,-2.63
2022-12-19T05:29:15.849Z,-2.64
2022-12-19T05:34:17.630Z,-2.66
2022-12-19T05:39:19.409Z,-2.66
2022-12-19T05:44:21.336Z,-2.65
2022-12-19T05:49:23.358Z,-2.62
2022-12-19T05:54:27.244Z,-2.58
2022-12-19T05:59:29.122Z,-2.54
2022-12-19T06:04:31.239Z,-2.50
2022-12-19T06:09:33.133Z,-2.46
2022-12-19T06:14:34.932Z,-2.45
2022-12-19T06:19:36.797Z,-2.42
2022-12-19T06:24:38.672Z,-2.40
2022-12-19T06:29:40.467Z,-2.36
2022-12-19T06:40:04.549Z,-2.25
2022-12-19T06:45:06.942Z,-2.21
2022-12-19T06:50:08.997Z,-2.19
2022-12-19T06:55:10.976Z,-2.17
2022-12-19T07:00:14.475Z,-2.16
2022-12-19T07:05:16.720Z,-2.14
2022-12-19T07:10:18.630Z,-2.12
2022-12-19T07:15:20.711Z,-2.10
2022-12-19T07:20:22.648Z,-2.06
2022-12-19T07:25:24.611Z,-2.01
2022-12-19T07:30:26.451Z,-1.96
2022-12-19T07:35:28.789Z,-1.91
2022-12-19T07:40:30.567Z,-1.88
2022-12-19T07:45:33.548Z,-1.84
2022-12-19T07:50:35.415Z,-1.81
2022-12-19T07:55:37.255Z,-1.74
2022-12-19T08:00:39.004Z,-1.62
2022-12-19T08:05:40.815Z,-1.56
2022-12-19T08:10:42.688Z,-1.52
2022-12-19T08:15:44.491Z,-1.50
2022-12-19T08:20:46.891Z,-1.46
2022-12-19T08:25:49.044Z,-1.43
2022-12-19T08:30:50.944Z,-1.38
2022-12-19T08:35:52.849Z,-1.32
2022-12-19T08:40:54.807Z,-1.24
2022-12-19T08:45:56.905Z,-1.17
2022-12-19T08:51:04.705Z,-1.10
2022-12-19T08:56:08.031Z,-1.00
2022-12-19T09:01:16.408Z,-0.93
2022-12-19T09:06:19.495Z,-0.84
2022-12-19T09:11:21.750Z,-0.73
2022-12-19T09:16:26.057Z,-0.68
2022-12-19T09:21:30.069Z,-0.60
2022-12-19T09:26:33.592Z,-0.55
2022-12-19T09:31:35.799Z,-0.52
2022-12-19T09:36:37.883Z,-0.50
2022-12-19T09:41:59.161Z,-0.45
2022-12-19T09:47:13.425Z,-0.39
2022-12-19T09:52:27.308Z,-0.31
2022-12-19T09:57:49.940Z,-0.24
2022-12-19T10:03:03.197Z,-0.17
2022-12-19T10:08:17.711Z,-0.10
2022-12-19T10:13:47.919Z,0.00
2022-12-19T10:19:00.671Z,0.08
2022-12-19T10:24:11.616Z,0.11
2022-12-19T10:29:41.252Z,0.14
2022-12-19T10:34:45.790Z,0.14
2022-12-19T10:40:07.344Z,0.15
2022-12-19T10:45:18.001Z,0.23
2022-12-19T10:50:26.638Z,0.30
2022-12-19T10:55:54.084Z,0.37
2022-12-19T11:01:05.329Z,0.47
2022-12-19T11:06:28.368Z,0.52
2022-12-19T11:12:43.875Z,0.65
2022-12-19T11:25:38.194Z,0.76
2022-12-19T11:29:41.631Z,0.82
2022-12-19T11:30:09.927Z,0.78
2022-12-19T11:33:18.764Z,0.73
2022-12-19T11:38:42.549Z,0.69
2022-12-19T11:44:02.126Z,0.69
2022-12-19T11:49:15.603Z,0.72
2022-12-19T11:54:20.384Z,0.75
2022-12-19T11:59:30.680Z,0.76
2022-12-19T12:04:57.325Z,0.68
2022-12-19T12:16:26.185Z,0.68
2022-12-19T12:26:38.382Z,0.65
2022-12-19T12:31:32.292Z,0.62
2022-12-19T12:32:02.056Z,0.63
2022-12-19T12:35:51.342Z,0.67
2022-12-19T12:38:35.661Z,0.73
2022-12-19T12:44:05.081Z,0.78
2022-12-19T12:49:33.624Z,0.80
2022-12-19T12:54:42.841Z,0.80
2022-12-19T12:59:46.532Z,0.80
2022-12-19T13:04:59.309Z,0.80
2022-12-19T13:10:12.902Z,0.79
2022-12-19T13:15:31.942Z,0.82
2022-12-19T13:20:46.183Z,0.80
2022-12-19T13:25:54.122Z,0.80
2022-12-19T13:31:21.075Z,0.80
2022-12-19T13:39:52.337Z,0.84
2022-12-19T13:42:46.149Z,0.79
2022-12-19T13:47:51.229Z,0.73
2022-12-19T13:52:53.601Z,0.68
2022-12-19T13:57:56.811Z,0.63
2022-12-19T14:03:00.636Z,0.62
2022-12-19T14:08:05.354Z,0.58
2022-12-19T14:14:02.001Z,0.56
2022-12-19T14:19:27.920Z,0.52
2022-12-19T14:24:29.764Z,0.52
2022-12-19T14:30:26.402Z,0.52
2022-12-19T14:36:07.760Z,0.55
2022-12-19T14:40:29.134Z,0.63
2022-12-19T14:53:51.855Z,0.69
2022-12-19T14:54:21.240Z,0.68
2022-12-19T14:57:01.052Z,0.70
2022-12-19T15:02:27.914Z,0.73
2022-12-19T15:07:35.737Z,0.73
2022-12-19T15:14:58.724Z,0.71
2022-12-19T15:19:00.351Z,0.72
2022-12-19T15:24:02.195Z,0.71
2022-12-19T15:29:14.133Z,0.76
2022-12-19T15:34:36.207Z,0.79
2022-12-19T15:39:40.995Z,0.80
2022-12-19T15:44:44.631Z,0.78
2022-12-19T15:49:47.290Z,0.76
2022-12-19T15:54:50.631Z,0.78
2022-12-19T15:59:53.640Z,0.79
2022-12-19T16:05:03.529Z,0.80
2022-12-19T16:10:07.382Z,0.84
2022-12-19T16:15:26.613Z,0.86
2022-12-19T16:20:31.762Z,0.89
2022-12-19T16:25:41.353Z,0.86
2022-12-19T16:30:44.638Z,0.88
2022-12-19T16:36:04.601Z,0.90
2022-12-19T16:41:17.738Z,0.89
2022-12-19T16:46:23.577Z,0.87
2022-12-19T16:51:28.356Z,0.86
2022-12-19T16:56:34.978Z,0.87
2022-12-19T17:01:36.893Z,0.86
2022-12-19T17:06:38.681Z,0.87
2022-12-19T17:11:41.836Z,0.86
2022-12-19T17:16:44.359Z,0.89
2022-12-19T17:21:46.224Z,0.92
2022-12-19T17:26:48.097Z,0.92
2022-12-19T17:31:49.982Z,0.91
2022-12-19T17:36:52.064Z,0.91
2022-12-19T17:41:57.715Z,0.89
2022-12-19T17:47:00.876Z,0.89
2022-12-19T17:52:02.718Z,0.90
2022-12-19T17:57:04.651Z,0.93
2022-12-19T18:02:19.944Z,0.89
2022-12-19T18:07:21.841Z,0.90
2022-12-19T18:12:23.861Z,0.91
2022-12-19T18:17:26.170Z,0.92
2022-12-19T18:22:27.993Z,0.92
2022-12-19T18:27:32.094Z,0.94
2022-12-19T18:32:33.931Z,0.95
2022-12-19T18:37:38.191Z,0.95
2022-12-19T18:42:40.111Z,0.97
2022-12-19T18:47:46.924Z,0.97
2022-12-19T18:52:53.896Z,0.99
2022-12-19T18:57:56.118Z,1.01
2022-12-19T19:03:08.062Z,1.03
2022-12-19T19:08:23.742Z,1.05
2022-12-19T19:13:36.611Z,1.08
2022-12-19T19:18:43.717Z,1.11
2022-12-19T19:23:48.360Z,1.11
2022-12-19T19:28:52.380Z,1.10
2022-12-19T19:34:00.378Z,1.09
2022-12-19T19:39:03.325Z,1.14
2022-12-19T19:44:05.231Z,1.17
2022-12-19T19:49:07.781Z,1.20
2022-12-19T19:54:09.974Z,1.19
2022-12-19T19:59:11.732Z,1.18
2022-12-19T20:04:15.004Z,1.14
2022-12-19T20:09:17.351Z,1.19
2022-12-19T20:14:19.228Z,1.18
2022-12-19T20:19:21.132Z,1.12
2022-12-19T20:24:22.966Z,1.10
2022-12-19T20:29:25.616Z,1.08
2022-12-19T20:34:27.458Z,1.08
2022-12-19T20:39:29.272Z,1.12
2022-12-19T20:44:31.123Z,1.13
2022-12-19T20:49:32.994Z,1.17
2022-12-19T20:54:34.795Z,1.19
2022-12-19T20:59:36.506Z,1.19
2022-12-19T21:04:38.620Z,1.20
2022-12-19T21:09:44.942Z,1.21
2022-12-19T21:14:47.101Z,1.22
2022-12-19T21:19:49.019Z,1.24
2022-12-19T21:24:50.890Z,1.23
2022-12-19T21:29:52.823Z,1.22
2022-12-19T21:34:54.702Z,1.24
2022-12-19T21:39:56.544Z,1.21
2022-12-19T21:44:58.422Z,1.20
2022-12-19T21:50:00.681Z,1.21
2022-12-19T21:55:03.364Z,1.18
2022-12-19T22:00:07.398Z,1.15
2022-12-19T22:05:09.310Z,1.14
2022-12-19T22:10:11.353Z,1.12
2022-12-19T22:15:13.225Z,1.13
2022-12-19T22:20:15.583Z,1.09
2022-12-19T22:25:17.647Z,1.03
2022-12-19T22:30:19.683Z,1.01
2022-12-19T22:35:21.405Z,1.00
2022-12-19T22:40:23.322Z,0.98
2022-12-19T22:45:25.653Z,0.94
2022-12-19T22:50:27.543Z,0.93
2022-12-19T22:55:29.271Z,0.86
2022-12-19T23:00:31.007Z,0.83
2022-12-19T23:05:36.593Z,0.80
2022-12-19T23:10:38.371Z,0.76
2022-12-19T23:15:42.918Z,0.77
2022-12-19T23:20:44.675Z,0.77
2022-12-19T23:25:46.430Z,0.78
2022-12-19T23:30:48.244Z,0.77
2022-12-19T23:35:50.025Z,0.74
2022-12-19T23:40:51.775Z,0.72
2022-12-19T23:45:53.669Z,0.72
2022-12-19T23:51:04.339Z,0.69
2022-12-19T23:56:12.451Z,0.67
